Madeline — WDF2406 — position and weather

sailwx.info

Track history (hours):
 
Tides and Currents Weather Stations Pressure Air Temp Water Temp Dewpoint Dewpoint Depression Visibility Wind Speed Wind Dir Waves Ship Positions

Madeline

Owner: Enterprise Marine Services, LLC, San Antonio, TX. More information available from US FCC via Universal Licensing System and Coast Guard Vessel Documentation Center.

Last reported at 2016-May-28 04:33 UTC. Time now 2016-May-28 06:03 UTC.
Position N 30°04' W 093°32'.

; draft 3 m.

Type: Tug. MMSI: 367350460.

Date/timePositionNaut miles runAvg speedWind from/ knotsBaromVisibWave heightAir tempDewpointWater temp
2016-May-28 04:33N 30°04' W 093°32'6 6.0
2016-May-28 03:33N 30°04' W 093°25'4 4.4
2016-May-28 02:33N 30°05' W 093°20'3 2.7
2016-May-28 01:33N 30°05' W 093°17'2 1.5
2016-May-28 00:33N 30°04' W 093°16'4 3.8
2016-May-27 23:33N 30°01' W 093°14'5 5.0
2016-May-27 22:33N 29°57' W 093°10'5 5.1
2016-May-27 21:33N 29°56' W 093°04'6 5.8
2016-May-27 20:33N 29°56' W 092°58'112 4.8
2016-May-26 21:22N 29°32' W 090°52'5 6.3
2016-May-26 20:33N 29°32' W 090°46'5 4.7
2016-May-26 19:33N 29°36' W 090°43'4 4.2
2016-May-26 18:33N 29°35' W 090°38'5 5.1
2016-May-26 17:33N 29°34' W 090°32'0 0.2
2016-May-26 16:33N 29°34' W 090°32'24 4.8
2016-May-26 11:33N 29°45' W 090°08'4 4.0
2016-May-26 10:29N 29°48' W 090°04'4 3.8
2016-May-26 09:33N 29°51' W 090°02'5 4.7
2016-May-26 08:33N 29°55' W 089°59'1 1.1
2016-May-26 07:33N 29°55' W 089°58'1 0.7
2016-May-26 06:33N 29°55' W 089°57'0 0.0
2016-May-26 05:33N 29°55' W 089°57'0 0.0
2016-May-26 04:32N 29°55' W 089°57'0 0.0
2016-May-26 03:33N 29°55' W 089°57'0 0.0
2016-May-26 02:33N 29°55' W 089°57'0 0.0
2016-May-26 01:32N 29°55' W 089°57'0 0.0
2016-May-26 00:33N 29°55' W 089°57'0 0.0
2016-May-25 23:33N 29°55' W 089°57'0 0.0
2016-May-25 22:33N 29°55' W 089°57'0 0.0
2016-May-25 21:33N 29°55' W 089°57'6 5.9
2016-May-25 20:33N 29°57' W 090°04'5 5.0
2016-May-25 19:33N 29°57' W 090°09'3 0.2
2016-May-24 21:33N 29°56' W 090°13'4 4.1
2016-May-24 20:33N 29°55' W 090°08'5 5.0
2016-May-24 19:33N 29°57' W 090°03'5 4.8
2016-May-24 18:33N 29°55' W 089°58'0 0.2
2016-May-24 17:33N 29°55' W 089°59'0 0.5
2016-May-24 16:33N 29°55' W 089°59'0 0.0
2016-May-24 15:33N 29°55' W 089°59'0 0.0
2016-May-24 14:33N 29°55' W 089°59'1 1.4
2016-May-24 13:33N 29°53' W 089°60'0 0.2
2016-May-24 12:32N 29°53' W 089°60'0 0.0
2016-May-24 11:31N 29°53' W 089°60'0 0.0
2016-May-24 10:31N 29°53' W 089°60'0 0.0
2016-May-24 09:33N 29°53' W 089°60'0 0.0
2016-May-24 08:33N 29°53' W 089°60'2 2.0
2016-May-24 07:33N 29°51' W 090°01'32 4.5
2016-May-24 00:27N 29°34' W 090°32'1 0.1
2016-May-23 19:16N 29°34' W 090°32'0 0.2
2016-May-23 18:33N 29°34' W 090°32'0 0.0
2016-May-23 17:33N 29°34' W 090°32'6 6.0
2016-May-23 16:32N 29°35' W 090°39'4 4.0
2016-May-23 15:34N 29°35' W 090°43'6 5.7
2016-May-23 14:28N 29°32' W 090°50'114 5.4
2016-May-22 17:31N 29°56' W 092°58'6 6.1
2016-May-22 16:33N 29°56' W 093°05'5 5.2
2016-May-22 15:33N 29°58' W 093°11'5 5.4
2016-May-22 14:33N 30°02' W 093°15'5 5.2
2016-May-22 13:33N 30°06' W 093°18'1 0.6
2016-May-22 12:33N 30°06' W 093°19'3 2.7
2016-May-22 11:33N 30°04' W 093°21'2 2.3
2016-May-22 10:33N 30°04' W 093°23'0 0.2
2016-May-22 09:33N 30°04' W 093°24'5 5.4
2016-May-22 08:33N 30°04' W 093°30'6 5.7
2016-May-22 07:33N 30°04' W 093°37'6 5.9
2016-May-22 06:32N 30°03' W 093°43'68 3.8
2016-May-21 12:33N 29°30' W 094°52'7 7.4
2016-May-21 11:33N 29°36' W 094°57'12 3.0
2016-May-21 07:33N 29°45' W 095°06'0 0.0
2016-May-21 06:33N 29°45' W 095°06'0 0.0
2016-May-21 05:33N 29°45' W 095°06'0 0.0
2016-May-21 04:33N 29°45' W 095°06'0 0.0
2016-May-21 03:24N 29°45' W 095°06'0 0.0
2016-May-20 22:33N 29°45' W 095°06'0 0.0
2016-May-20 17:27N 29°45' W 095°06'0 0.1
2016-May-20 16:32N 29°45' W 095°06'1 0.7
2016-May-20 15:11N 29°46' W 095°05'4 6.4
2016-May-20 14:33N 29°44' W 095°01'6 6.1
2016-May-20 13:33N 29°38' W 094°58'8 7.9
2016-May-20 12:32N 29°31' W 094°53'1 0.2
2016-May-20 03:29N 29°30' W 094°52'9 8.7
2016-May-20 02:30N 29°37' W 094°58'8 7.9
2016-May-20 01:32N 29°44' W 095°02'4 3.3
2016-May-20 00:29N 29°45' W 095°06'0 0.1
2016-May-19 22:20N 29°45' W 095°06'0 0.0
2016-May-19 21:29N 29°45' W 095°06'0 0.0
2016-May-19 20:32N 29°45' W 095°06'0 0.0
2016-May-19 18:26N 29°45' W 095°06'0 0.0
2016-May-19 17:33N 29°45' W 095°06'0 0.0
2016-May-19 16:26N 29°45' W 095°06'0 0.0
2016-May-19 13:25N 29°45' W 095°06'0 0.0
2016-May-19 12:10N 29°45' W 095°06'0 0.2
2016-May-19 11:33N 29°45' W 095°06'4 4.0
2016-May-19 10:32N 29°44' W 095°02'7 6.7
2016-May-19 09:33N 29°38' W 094°58'8 7.6
2016-May-19 08:33N 29°32' W 094°53'  
Track history (hours):
 
Tides and Currents Weather Stations Pressure Air Temp Water Temp Dewpoint Dewpoint Depression Visibility Wind Speed Wind Dir Waves Ship Positions

Madeline

Owner: Enterprise Marine Services, LLC, San Antonio, TX. More information available from US FCC via Universal Licensing System and Coast Guard Vessel Documentation Center.

Last reported at 2016-May-28 04:33 UTC. Time now 2016-May-28 06:03 UTC.
Position N 30°04' W 093°32'.

; draft 3 m.

Type: Tug. MMSI: 367350460.

Date/timePositionNaut miles runAvg speedWind from/ knotsBaromVisibWave heightAir tempDewpointWater temp
2016-May-28 04:33N 30°04' W 093°32'6 6.0
2016-May-28 03:33N 30°04' W 093°25'4 4.4
2016-May-28 02:33N 30°05' W 093°20'3 2.7
2016-May-28 01:33N 30°05' W 093°17'2 1.5
2016-May-28 00:33N 30°04' W 093°16'4 3.8
2016-May-27 23:33N 30°01' W 093°14'5 5.0
2016-May-27 22:33N 29°57' W 093°10'5 5.1
2016-May-27 21:33N 29°56' W 093°04'6 5.8
2016-May-27 20:33N 29°56' W 092°58'112 4.8
2016-May-26 21:22N 29°32' W 090°52'5 6.3
2016-May-26 20:33N 29°32' W 090°46'5 4.7
2016-May-26 19:33N 29°36' W 090°43'4 4.2
2016-May-26 18:33N 29°35' W 090°38'5 5.1
2016-May-26 17:33N 29°34' W 090°32'0 0.2
2016-May-26 16:33N 29°34' W 090°32'24 4.8
2016-May-26 11:33N 29°45' W 090°08'4 4.0
2016-May-26 10:29N 29°48' W 090°04'4 3.8
2016-May-26 09:33N 29°51' W 090°02'5 4.7
2016-May-26 08:33N 29°55' W 089°59'1 1.1
2016-May-26 07:33N 29°55' W 089°58'1 0.7
2016-May-26 06:33N 29°55' W 089°57'0 0.0
2016-May-26 05:33N 29°55' W 089°57'0 0.0
2016-May-26 04:32N 29°55' W 089°57'0 0.0
2016-May-26 03:33N 29°55' W 089°57'0 0.0
2016-May-26 02:33N 29°55' W 089°57'0 0.0
2016-May-26 01:32N 29°55' W 089°57'0 0.0
2016-May-26 00:33N 29°55' W 089°57'0 0.0
2016-May-25 23:33N 29°55' W 089°57'0 0.0
2016-May-25 22:33N 29°55' W 089°57'0 0.0
2016-May-25 21:33N 29°55' W 089°57'6 5.9
2016-May-25 20:33N 29°57' W 090°04'5 5.0
2016-May-25 19:33N 29°57' W 090°09'3 0.2
2016-May-24 21:33N 29°56' W 090°13'4 4.1
2016-May-24 20:33N 29°55' W 090°08'5 5.0
2016-May-24 19:33N 29°57' W 090°03'5 4.8
2016-May-24 18:33N 29°55' W 089°58'0 0.2
2016-May-24 17:33N 29°55' W 089°59'0 0.5
2016-May-24 16:33N 29°55' W 089°59'0 0.0
2016-May-24 15:33N 29°55' W 089°59'0 0.0
2016-May-24 14:33N 29°55' W 089°59'1 1.4
2016-May-24 13:33N 29°53' W 089°60'0 0.2
2016-May-24 12:32N 29°53' W 089°60'0 0.0
2016-May-24 11:31N 29°53' W 089°60'0 0.0
2016-May-24 10:31N 29°53' W 089°60'0 0.0
2016-May-24 09:33N 29°53' W 089°60'0 0.0
2016-May-24 08:33N 29°53' W 089°60'2 2.0
2016-May-24 07:33N 29°51' W 090°01'32 4.5
2016-May-24 00:27N 29°34' W 090°32'1 0.1
2016-May-23 19:16N 29°34' W 090°32'0 0.2
2016-May-23 18:33N 29°34' W 090°32'0 0.0
2016-May-23 17:33N 29°34' W 090°32'6 6.0
2016-May-23 16:32N 29°35' W 090°39'4 4.0
2016-May-23 15:34N 29°35' W 090°43'6 5.7
2016-May-23 14:28N 29°32' W 090°50'114 5.4
2016-May-22 17:31N 29°56' W 092°58'6 6.1
2016-May-22 16:33N 29°56' W 093°05'5 5.2
2016-May-22 15:33N 29°58' W 093°11'5 5.4
2016-May-22 14:33N 30°02' W 093°15'5 5.2
2016-May-22 13:33N 30°06' W 093°18'1 0.6
2016-May-22 12:33N 30°06' W 093°19'3 2.7
2016-May-22 11:33N 30°04' W 093°21'2 2.3
2016-May-22 10:33N 30°04' W 093°23'0 0.2
2016-May-22 09:33N 30°04' W 093°24'5 5.4
2016-May-22 08:33N 30°04' W 093°30'6 5.7
2016-May-22 07:33N 30°04' W 093°37'6 5.9
2016-May-22 06:32N 30°03' W 093°43'68 3.8
2016-May-21 12:33N 29°30' W 094°52'7 7.4
2016-May-21 11:33N 29°36' W 094°57'12 3.0
2016-May-21 07:33N 29°45' W 095°06'0 0.0
2016-May-21 06:33N 29°45' W 095°06'0 0.0
2016-May-21 05:33N 29°45' W 095°06'0 0.0
2016-May-21 04:33N 29°45' W 095°06'0 0.0
2016-May-21 03:24N 29°45' W 095°06'0 0.0
2016-May-20 22:33N 29°45' W 095°06'0 0.0
2016-May-20 17:27N 29°45' W 095°06'0 0.1
2016-May-20 16:32N 29°45' W 095°06'1 0.7
2016-May-20 15:11N 29°46' W 095°05'4 6.4
2016-May-20 14:33N 29°44' W 095°01'6 6.1
2016-May-20 13:33N 29°38' W 094°58'8 7.9
2016-May-20 12:32N 29°31' W 094°53'1 0.2
2016-May-20 03:29N 29°30' W 094°52'9 8.7
2016-May-20 02:30N 29°37' W 094°58'8 7.9
2016-May-20 01:32N 29°44' W 095°02'4 3.3
2016-May-20 00:29N 29°45' W 095°06'0 0.1
2016-May-19 22:20N 29°45' W 095°06'0 0.0
2016-May-19 21:29N 29°45' W 095°06'0 0.0
2016-May-19 20:32N 29°45' W 095°06'0 0.0
2016-May-19 18:26N 29°45' W 095°06'0 0.0
2016-May-19 17:33N 29°45' W 095°06'0 0.0
2016-May-19 16:26N 29°45' W 095°06'0 0.0
2016-May-19 13:25N 29°45' W 095°06'0 0.0
2016-May-19 12:10N 29°45' W 095°06'0 0.2
2016-May-19 11:33N 29°45' W 095°06'4 4.0
2016-May-19 10:32N 29°44' W 095°02'7 6.7
2016-May-19 09:33N 29°38' W 094°58'8 7.6
2016-May-19 08:33N 29°32' W 094°53'  

Dump ship's entire track history